Time;durP1;ratioP1;P1;durP2;ratioP2;P2;SDS_P1;SDS_P2;PMS_P1;PMS_P2;Temp;Humidity;BMP_temperature;BMP_pressure;BME280_temperature;BME280_humidity;BME280_pressure;Samples;Min_cycle;Max_cycle;Signal;HPM_P1;HPM_P2
2023/09/27 00:02:53;;;;;;;32.90;17.70;;;;;;;14.25;100.00;100669.23;105716;1256;70598;-62
2023/09/27 00:05:41;;;;;;;34.20;19.10;;;;;;;14.24;100.00;100667.51;105972;1254;74197;-62
2023/09/27 00:08:29;;;;;;;28.50;16.10;;;;;;;14.24;100.00;100664.65;105870;1254;60138;-64
2023/09/27 00:11:19;;;;;;;31.80;16.70;;;;;;;14.23;100.00;100667.39;105900;1254;61872;-63
2023/09/27 00:14:07;;;;;;;30.80;17.10;;;;;;;14.23;100.00;100665.21;105913;1254;72405;-62
2023/09/27 00:16:55;;;;;;;31.60;18.20;;;;;;;14.23;100.00;100667.27;105923;1254;69294;-63
2023/09/27 00:19:43;;;;;;;34.10;19.50;;;;;;;14.23;100.00;100666.90;105714;1256;72968;-63
2023/09/27 00:22:32;;;;;;;30.80;18.30;;;;;;;14.21;100.00;100663.27;105896;1258;60347;-62
2023/09/27 00:25:20;;;;;;;28.90;16.40;;;;;;;14.21;100.00;100659.23;105779;1256;60695;-62
2023/09/27 00:28:08;;;;;;;29.60;16.60;;;;;;;14.17;100.00;100655.10;105976;1255;74009;-62
2023/09/27 00:30:56;;;;;;;34.50;18.10;;;;;;;14.18;100.00;100657.86;105799;1253;67867;-62
2023/09/27 00:33:47;;;;;;;34.60;18.00;;;;;;;14.16;100.00;100659.79;105861;1256;72949;-61
2023/09/27 00:36:34;;;;;;;31.40;17.30;;;;;;;14.15;100.00;100659.86;105787;1254;60094;-62
2023/09/27 00:39:24;;;;;;;30.90;17.10;;;;;;;14.15;100.00;100659.86;105777;1254;60691;-66
2023/09/27 00:42:12;;;;;;;34.10;17.10;;;;;;;14.14;100.00;100661.90;105841;1252;72418;-63
2023/09/27 00:45:01;;;;;;;34.60;17.90;;;;;;;14.13;100.00;100657.32;105827;1255;67497;-65
2023/09/27 00:47:51;;;;;;;35.50;18.60;;;;;;;14.12;100.00;100656.33;105862;1254;74111;-64
2023/09/27 00:50:39;;;;;;;32.00;17.10;;;;;;;14.11;100.00;100652.75;105909;1257;59969;-63
2023/09/27 00:53:33;;;;;;;32.40;17.70;;;;;;;14.10;100.00;100655.66;105690;1256;61924;-63
2023/09/27 00:56:23;;;;;;;33.10;18.30;;;;;;;14.09;100.00;100656.98;105878;1255;74583;-64
2023/09/27 00:59:11;;;;;;;29.80;16.20;;;;;;;14.08;100.00;100656.17;105861;1256;67104;-62
2023/09/27 01:02:00;;;;;;;37.80;18.70;;;;;;;14.07;100.00;100656.42;105674;1256;73452;-62
2023/09/27 01:04:48;;;;;;;31.80;18.20;;;;;;;14.06;100.00;100650.44;105922;1255;59707;-64
2023/09/27 01:07:40;;;;;;;38.30;21.00;;;;;;;14.08;100.00;100646.01;105945;1258;59707;-62
2023/09/27 01:10:28;;;;;;;38.20;19.60;;;;;;;14.11;100.00;100638.27;105582;1254;74689;-67
2023/09/27 01:13:17;;;;;;;36.10;19.40;;;;;;;14.14;100.00;100637.08;105778;1254;67228;-63
2023/09/27 01:16:05;;;;;;;34.40;18.80;;;;;;;14.19;100.00;100631.00;105760;1254;73204;-63
2023/09/27 01:18:53;;;;;;;37.10;19.00;;;;;;;14.24;100.00;100633.58;105929;1256;59653;-63
2023/09/27 01:21:42;;;;;;;34.70;17.00;;;;;;;14.28;100.00;100631.44;105810;1253;60469;-62
2023/09/27 01:24:34;;;;;;;38.70;19.20;;;;;;;14.33;100.00;100628.39;105776;1254;72441;-62
2023/09/27 01:27:23;;;;;;;37.20;19.60;;;;;;;14.38;100.00;100628.51;105751;1256;67283;-65
2023/09/27 01:30:12;;;;;;;36.40;18.80;;;;;;;14.41;100.00;100627.02;105603;1254;74422;-63
2023/09/27 01:33:08;;;;;;;33.80;18.20;;;;;;;14.44;100.00;100631.56;105785;1256;60916;-63
2023/09/27 01:35:57;;;;;;;35.30;19.70;;;;;;;14.44;100.00;100634.94;105739;1256;59941;-63
2023/09/27 01:38:45;;;;;;;38.40;19.70;;;;;;;14.44;100.00;100636.00;105809;1257;74604;-63
2023/09/27 01:41:34;;;;;;;37.20;18.90;;;;;;;14.45;100.00;100638.64;105862;1256;69453;-63
2023/09/27 01:44:22;;;;;;;36.10;19.80;;;;;;;14.46;100.00;100641.72;105776;1253;73923;-61
2023/09/27 01:47:11;;;;;;;37.30;20.10;;;;;;;14.47;100.00;100640.75;105797;1254;60121;-65
2023/09/27 01:49:58;;;;;;;34.80;18.90;;;;;;;14.46;100.00;100639.59;105696;1254;60623;-62
2023/09/27 01:52:47;;;;;;;36.20;19.30;;;;;;;14.46;100.00;100641.60;105755;1254;73223;-63
2023/09/27 01:55:35;;;;;;;36.70;20.10;;;;;;;14.46;100.00;100640.69;105827;1256;67235;-61
2023/09/27 01:58:24;;;;;;;37.50;20.30;;;;;;;14.44;100.00;100635.48;105694;1256;72258;-62
2023/09/27 02:01:12;;;;;;;33.30;17.40;;;;;;;14.43;100.00;100636.77;105768;1257;60203;-61
2023/09/27 02:04:00;;;;;;;39.90;19.50;;;;;;;14.42;100.00;100639.00;105782;1253;59621;-62
2023/09/27 02:06:48;;;;;;;32.90;18.40;;;;;;;14.42;100.00;100640.15;105928;1253;73656;-62
2023/09/27 02:09:36;;;;;;;37.20;19.90;;;;;;;14.42;100.00;100639.44;105763;1256;67612;-61
2023/09/27 02:12:24;;;;;;;37.00;20.20;;;;;;;14.43;100.00;100638.61;105928;1256;73617;-62
2023/09/27 02:15:15;;;;;;;33.10;18.50;;;;;;;14.42;100.00;100634.71;105840;1254;59650;-62
2023/09/27 02:18:03;;;;;;;38.80;20.10;;;;;;;14.43;100.00;100632.70;105865;1255;59612;-62
2023/09/27 02:20:51;;;;;;;37.80;19.40;;;;;;;14.44;100.00;100630.14;105473;1254;439405;-61
2023/09/27 02:23:39;;;;;;;38.80;19.10;;;;;;;14.43;100.00;100627.88;105783;1254;69317;-61
2023/09/27 02:26:27;;;;;;;35.90;20.10;;;;;;;14.43;100.00;100627.70;105876;1252;74074;-63
2023/09/27 02:29:15;;;;;;;35.40;20.30;;;;;;;14.42;100.00;100625.45;105919;1254;60165;-62
2023/09/27 02:32:07;;;;;;;32.40;17.40;;;;;;;14.42;100.00;100624.97;105893;1256;59599;-62
2023/09/27 02:34:55;;;;;;;32.90;18.80;;;;;;;14.40;100.00;100624.58;105891;1254;73286;-63
2023/09/27 02:37:44;;;;;;;36.70;19.70;;;;;;;14.38;100.00;100624.94;105824;1256;69366;-61
2023/09/27 02:40:32;;;;;;;38.50;20.80;;;;;;;14.37;100.00;100620.23;105951;1254;74183;-61
2023/09/27 02:43:20;;;;;;;37.50;20.40;;;;;;;14.36;100.00;100621.90;105884;1257;59711;-63
2023/09/27 02:46:09;;;;;;;38.40;18.90;;;;;;;14.35;100.00;100625.77;105955;1254;61141;-62
2023/09/27 02:48:56;;;;;;;35.60;20.00;;;;;;;14.33;100.00;100622.70;105863;1253;73601;-63
2023/09/27 02:51:47;;;;;;;33.20;18.30;;;;;;;14.30;100.00;100622.86;106128;1254;69383;-63
2023/09/27 02:54:35;;;;;;;40.50;19.80;;;;;;;14.30;100.00;100622.35;105854;1254;74631;-64
2023/09/27 02:57:23;;;;;;;41.80;20.00;;;;;;;14.30;100.00;100619.67;105878;1257;59884;-64
2023/09/27 03:00:12;;;;;;;35.70;20.20;;;;;;;14.30;100.00;100621.79;105603;1260;60551;-63
2023/09/27 03:03:01;;;;;;;38.20;20.40;;;;;;;14.31;100.00;100621.73;105892;1257;74600;-63
2023/09/27 03:05:50;;;;;;;38.80;19.50;;;;;;;14.29;100.00;100621.52;105970;1254;67090;-64
2023/09/27 03:08:39;;;;;;;35.70;20.80;;;;;;;14.28;100.00;100624.86;105765;1257;74262;-65
2023/09/27 03:11:28;;;;;;;38.40;20.60;;;;;;;14.26;100.00;100624.29;105774;1255;59720;-62
2023/09/27 03:14:17;;;;;;;42.40;21.30;;;;;;;14.24;100.00;100622.84;105836;1256;62154;-62
2023/09/27 03:17:05;;;;;;;35.90;20.90;;;;;;;14.23;100.00;100626.54;105866;1254;73696;-64
2023/09/27 03:19:53;;;;;;;45.70;21.30;;;;;;;14.21;100.00;100623.89;105906;1255;68421;-65
2023/09/27 03:22:42;;;;;;;35.70;20.20;;;;;;;14.19;100.00;100621.75;105881;1257;73249;-66
2023/09/27 03:25:30;;;;;;;36.40;19.30;;;;;;;14.15;100.00;100615.59;105909;1254;59643;-67
2023/09/27 03:28:19;;;;;;;36.60;20.20;;;;;;;14.13;100.00;100617.23;105904;1256;59627;-67
2023/09/27 03:31:07;;;;;;;42.00;21.60;;;;;;;14.11;100.00;100619.55;105900;1254;72688;-66
2023/09/27 03:33:56;;;;;;;36.10;19.90;;;;;;;14.07;100.00;100618.59;105675;1255;68598;-66
2023/09/27 03:36:44;;;;;;;37.80;21.00;;;;;;;14.04;100.00;100614.27;105932;1256;73226;-63
2023/09/27 03:39:35;;;;;;;42.80;21.30;;;;;;;14.04;100.00;100619.95;105904;1256;59621;-63
2023/09/27 03:42:24;;;;;;;37.20;20.60;;;;;;;14.02;100.00;100610.25;105808;1257;59625;-65
2023/09/27 03:45:14;;;;;;;40.20;22.00;;;;;;;14.02;100.00;100614.95;105769;1252;73438;-63
2023/09/27 03:48:05;;;;;;;39.70;21.80;;;;;;;14.01;100.00;100617.98;105588;1259;68540;-62
2023/09/27 03:50:54;;;;;;;38.50;20.90;;;;;;;13.98;100.00;100614.52;106046;1256;74278;-63
2023/09/27 03:53:42;;;;;;;36.10;19.30;;;;;;;13.96;100.00;100620.39;105700;1258;61036;-62
2023/09/27 03:56:30;;;;;;;35.70;20.00;;;;;;;13.94;100.00;100622.71;105773;1257;60761;-63
2023/09/27 03:59:18;;;;;;;36.70;19.90;;;;;;;13.93;100.00;100625.09;105624;1259;73602;-63
2023/09/27 04:02:06;;;;;;;38.10;19.70;;;;;;;13.92;100.00;100624.64;105558;1255;66102;-64
2023/09/27 04:04:55;;;;;;;43.60;20.80;;;;;;;13.89;100.00;100623.82;105678;1255;73255;-62
2023/09/27 04:07:43;;;;;;;36.70;19.20;;;;;;;13.86;100.00;100625.89;105846;1256;59615;-61
2023/09/27 04:10:31;;;;;;;34.60;18.40;;;;;;;13.85;100.00;100627.58;105728;1256;61896;-63
2023/09/27 04:13:19;;;;;;;36.10;18.90;;;;;;;13.83;100.00;100626.98;105817;1255;73929;-65
2023/09/27 04:16:08;;;;;;;33.10;18.40;;;;;;;13.83;100.00;100622.02;105888;1256;67337;-63
2023/09/27 04:18:58;;;;;;;34.10;18.80;;;;;;;13.82;100.00;100622.48;105851;1257;73165;-63
2023/09/27 04:21:46;;;;;;;35.50;18.40;;;;;;;13.80;100.00;100621.02;105660;1257;60106;-63
2023/09/27 04:24:34;;;;;;;36.30;18.40;;;;;;;13.77;100.00;100616.98;105742;1255;60790;-63
2023/09/27 04:27:22;;;;;;;38.10;20.40;;;;;;;13.76;100.00;100615.60;105531;1254;73451;-63
2023/09/27 04:30:19;;;;;;;35.00;18.00;;;;;;;13.76;100.00;100614.73;105969;1256;67277;-62
2023/09/27 04:33:07;;;;;;;35.80;20.50;;;;;;;13.73;100.00;100618.20;105806;1257;72207;-63
2023/09/27 04:35:55;;;;;;;35.90;19.30;;;;;;;13.69;100.00;100622.95;105723;1257;59733;-65
2023/09/27 04:38:46;;;;;;;34.10;18.20;;;;;;;13.67;100.00;100623.54;105797;1255;61335;-65
2023/09/27 04:41:34;;;;;;;35.30;18.30;;;;;;;13.65;100.00;100620.30;105829;1255;72752;-65
2023/09/27 04:44:22;;;;;;;37.30;18.80;;;;;;;13.62;100.00;100617.23;105860;1254;68269;-64
2023/09/27 04:47:10;;;;;;;32.10;17.80;;;;;;;13.61;100.00;100613.82;105766;1256;72299;-62
2023/09/27 04:49:58;;;;;;;37.80;20.80;;;;;;;13.61;100.00;100615.80;105739;1254;60175;-63
2023/09/27 04:52:47;;;;;;;33.70;17.90;;;;;;;13.65;100.00;100614.40;105835;1254;59930;-63
2023/09/27 04:55:35;;;;;;;36.10;19.20;;;;;;;13.68;100.00;100610.08;105919;1254;72387;-64
2023/09/27 04:58:23;;;;;;;40.00;19.90;;;;;;;13.70;100.00;100601.54;105794;1257;68495;-62
2023/09/27 05:01:12;;;;;;;38.40;20.50;;;;;;;13.72;100.00;100595.81;105745;1254;73148;-63
2023/09/27 05:04:01;;;;;;;40.90;21.30;;;;;;;13.74;100.00;100599.88;106079;1252;61033;-63
2023/09/27 05:06:49;;;;;;;36.40;20.60;;;;;;;13.77;100.00;100601.60;105928;1256;59796;-63
2023/09/27 05:09:37;;;;;;;45.00;22.20;;;;;;;13.81;100.00;100602.91;105824;1256;73576;-63
2023/09/27 05:12:25;;;;;;;37.70;20.40;;;;;;;13.87;100.00;100604.56;106031;1253;68540;-63
2023/09/27 05:15:13;;;;;;;34.60;19.10;;;;;;;13.91;100.00;100606.70;105692;1257;73909;-63
2023/09/27 05:18:02;;;;;;;32.50;18.80;;;;;;;13.97;100.00;100610.88;105624;1257;59653;-62
2023/09/27 05:20:50;;;;;;;33.20;18.40;;;;;;;14.03;100.00;100610.38;105852;1256;60686;-64
2023/09/27 05:23:38;;;;;;;40.30;20.30;;;;;;;14.07;100.00;100615.58;105806;1256;73642;-64
2023/09/27 05:26:27;;;;;;;38.90;20.90;;;;;;;14.12;100.00;100607.42;105672;1258;68213;-63
2023/09/27 05:29:15;;;;;;;39.90;21.90;;;;;;;14.18;100.00;100601.80;105803;1254;73252;-64
2023/09/27 05:32:04;;;;;;;40.50;21.00;;;;;;;14.24;100.00;100600.27;105755;1254;59657;-63
2023/09/27 05:34:53;;;;;;;42.30;22.30;;;;;;;14.28;100.00;100597.75;105819;1256;60841;-62
2023/09/27 05:37:42;;;;;;;41.80;21.80;;;;;;;14.33;100.00;100600.04;105734;1254;74074;-62
2023/09/27 05:40:31;;;;;;;41.50;22.50;;;;;;;14.36;100.00;100598.15;105869;1256;67249;-63
2023/09/27 05:43:20;;;;;;;44.20;22.70;;;;;;;14.39;100.00;100593.64;105872;1254;72288;-63
2023/09/27 05:46:09;;;;;;;47.00;22.00;;;;;;;14.42;100.00;100594.02;105826;1262;59660;-63
2023/09/27 05:48:57;;;;;;;45.10;23.70;;;;;;;14.44;100.00;100593.66;105904;1256;60846;-64
2023/09/27 05:51:45;;;;;;;41.80;22.50;;;;;;;14.48;100.00;100589.94;105819;1255;73026;-63
2023/09/27 05:54:33;;;;;;;46.70;23.80;;;;;;;14.53;100.00;100585.98;105900;1253;68194;-64
2023/09/27 05:57:22;;;;;;;43.30;22.30;;;;;;;14.59;100.00;100593.48;105602;1256;72044;-62
2023/09/27 06:00:21;;;;;;;43.00;22.60;;;;;;;14.69;100.00;100596.27;105812;1255;60108;-63
2023/09/27 06:03:09;;;;;;;41.30;21.10;;;;;;;14.83;100.00;100604.34;105925;1256;60677;-63
2023/09/27 06:05:58;;;;;;;34.00;18.60;;;;;;;15.00;100.00;100604.10;105867;1257;73502;-64
2023/09/27 06:08:46;;;;;;;41.90;21.00;;;;;;;15.20;100.00;100612.17;105600;1256;67048;-66
2023/09/27 06:11:35;;;;;;;39.70;21.00;;;;;;;15.39;100.00;100612.13;105590;1254;72874;-64
2023/09/27 06:14:23;;;;;;;39.20;19.70;;;;;;;15.58;100.00;100605.96;105705;1254;59605;-65
2023/09/27 06:17:15;;;;;;;31.70;16.60;;;;;;;15.78;100.00;100611.52;105956;1255;60825;-66
2023/09/27 06:20:08;;;;;;;34.60;19.10;;;;;;;15.95;100.00;100617.08;105614;1257;72694;-63
2023/09/27 06:23:03;;;;;;;34.90;20.00;;;;;;;16.13;100.00;100611.31;105797;1256;66956;-62
2023/09/27 06:25:53;;;;;;;36.50;18.90;;;;;;;16.33;100.00;100603.06;105857;1255;72026;-62
2023/09/27 06:28:42;;;;;;;37.00;20.60;;;;;;;16.51;100.00;100602.45;105858;1256;61176;-63
2023/09/27 06:31:30;;;;;;;37.00;19.70;;;;;;;16.73;100.00;100601.06;105861;1257;60941;-64
2023/09/27 06:34:19;;;;;;;41.90;20.40;;;;;;;17.01;100.00;100602.58;105674;1257;73588;-66
2023/09/27 06:37:08;;;;;;;36.00;19.90;;;;;;;17.22;99.73;100602.20;105820;1257;69314;-64
2023/09/27 06:39:56;;;;;;;38.20;20.90;;;;;;;17.43;98.17;100603.15;105852;1257;72954;-65
2023/09/27 06:42:45;;;;;;;36.30;19.00;;;;;;;17.69;96.62;100602.56;105955;1256;60033;-63
2023/09/27 06:45:33;;;;;;;35.90;19.60;;;;;;;17.86;94.64;100612.93;105866;1256;62005;-65
2023/09/27 06:48:24;;;;;;;33.80;17.70;;;;;;;18.22;94.03;100614.03;105850;1255;74320;-63
2023/09/27 06:51:13;;;;;;;32.40;18.50;;;;;;;19.65;88.03;100615.91;106230;1257;68178;-67
2023/09/27 06:54:05;;;;;;;31.40;18.20;;;;;;;20.85;82.67;100620.52;105588;1252;71781;-65
2023/09/27 06:56:53;;;;;;;31.40;17.90;;;;;;;21.46;78.12;100621.55;105651;1258;59989;-64
2023/09/27 06:59:41;;;;;;;30.40;16.50;;;;;;;21.48;77.78;100618.99;105820;1260;59759;-62
2023/09/27 07:02:30;;;;;;;32.60;19.60;;;;;;;21.84;76.68;100621.27;105825;1255;73664;-64
2023/09/27 07:05:21;;;;;;;31.40;18.00;;;;;;;21.54;75.42;100621.35;105847;1256;66781;-62
2023/09/27 07:08:10;;;;;;;32.60;19.00;;;;;;;22.00;73.77;100626.19;105833;1255;73187;-63
2023/09/27 07:11:09;;;;;;;33.20;18.80;;;;;;;22.78;71.29;100628.27;105752;1259;59612;-62
2023/09/27 07:13:57;;;;;;;31.70;18.80;;;;;;;22.71;69.55;100627.90;105698;1254;60696;-65
2023/09/27 07:16:46;;;;;;;33.50;19.80;;;;;;;22.33;69.28;100636.17;106055;1253;73483;-63
2023/09/27 07:19:53;;;;;;;30.20;18.20;;;;;;;21.98;71.43;100634.02;105743;1254;67267;-63
2023/09/27 07:22:44;;;;;;;27.50;18.60;;;;;;;21.70;72.40;100631.45;106012;1256;73295;-63
2023/09/27 07:25:35;;;;;;;29.00;17.00;;;;;;;21.33;73.84;100632.09;105943;1252;59541;-63
2023/09/27 07:28:23;;;;;;;34.00;18.50;;;;;;;21.19;74.64;100627.81;105706;1257;59679;-62
2023/09/27 07:31:16;;;;;;;31.80;18.50;;;;;;;21.06;75.30;100627.39;105772;1257;73642;-63
2023/09/27 07:34:05;;;;;;;32.90;17.90;;;;;;;21.63;73.99;100627.88;105995;1253;68567;-65
2023/09/27 07:36:54;;;;;;;31.20;18.10;;;;;;;22.55;70.52;100626.91;105762;1257;72178;-64
2023/09/27 07:39:42;;;;;;;29.60;17.80;;;;;;;23.22;67.37;100620.13;105648;1254;59691;-63
2023/09/27 07:42:31;;;;;;;27.80;16.80;;;;;;;23.25;66.81;100628.61;105992;1257;60621;-63
2023/09/27 07:45:25;;;;;;;32.40;17.90;;;;;;;22.74;67.61;100630.48;105803;1257;73611;-63
2023/09/27 07:48:13;;;;;;;27.40;17.50;;;;;;;22.08;69.12;100633.36;105606;1253;68281;-65
2023/09/27 07:51:09;;;;;;;28.00;17.70;;;;;;;22.36;69.86;100641.45;105682;1257;74193;-61
2023/09/27 07:53:57;;;;;;;30.00;17.50;;;;;;;23.40;67.63;100640.36;105701;1258;59730;-63
2023/09/27 07:56:46;;;;;;;25.60;17.30;;;;;;;24.54;62.94;100642.42;105705;1257;59745;-64
2023/09/27 07:59:35;;;;;;;25.80;16.30;;;;;;;25.65;59.17;100635.34;105920;1256;73573;-65
2023/09/27 08:02:24;;;;;;;22.60;15.10;;;;;;;26.81;56.59;100641.08;105741;1257;68400;-63
2023/09/27 08:05:16;;;;;;;24.40;15.60;;;;;;;27.87;53.20;100640.03;105870;1253;73940;-63
2023/09/27 08:08:05;;;;;;;24.80;14.90;;;;;;;28.52;49.25;100639.57;105766;1258;59736;-64
2023/09/27 08:10:53;;;;;;;20.80;13.40;;;;;;;28.89;48.31;100635.70;106069;1254;60044;-62
2023/09/27 08:13:42;;;;;;;23.90;14.20;;;;;;;29.26;47.39;100626.32;105748;1254;74132;-62
2023/09/27 08:16:30;;;;;;;24.90;14.20;;;;;;;30.02;47.46;100628.59;105636;1251;69248;-64
2023/09/27 08:19:18;;;;;;;20.80;13.40;;;;;;;30.88;45.14;100629.30;105786;1254;72595;-62
2023/09/27 08:22:09;;;;;;;22.70;13.90;;;;;;;31.58;43.48;100628.96;105746;1253;60199;-63
2023/09/27 08:24:57;;;;;;;21.30;13.70;;;;;;;31.87;41.47;100621.67;105906;1254;59881;-64
2023/09/27 08:27:48;;;;;;;22.30;13.00;;;;;;;32.12;41.08;100620.45;105813;1254;73645;-69
2023/09/27 08:30:36;;;;;;;22.30;14.40;;;;;;;32.28;40.46;100620.45;105859;1256;68405;-70
2023/09/27 08:33:25;;;;;;;23.40;14.10;;;;;;;32.33;40.17;100612.32;105913;1254;72969;-66
2023/09/27 08:36:13;;;;;;;19.90;12.90;;;;;;;32.34;40.35;100611.45;105762;1254;59641;-65
2023/09/27 08:39:02;;;;;;;22.20;12.90;;;;;;;32.50;40.21;100620.67;105867;1252;61337;-64
2023/09/27 08:41:50;;;;;;;17.90;12.60;;;;;;;32.55;39.88;100613.15;105969;1255;74081;-62
2023/09/27 08:44:39;;;;;;;21.40;13.40;;;;;;;32.80;39.60;100603.84;105985;1254;67983;-63
2023/09/27 08:47:29;;;;;;;19.20;11.60;;;;;;;33.13;39.61;100596.77;105998;1254;72137;-63
2023/09/27 08:50:19;;;;;;;20.90;12.60;;;;;;;33.73;38.44;100595.58;105816;1257;59545;-64
2023/09/27 08:53:07;;;;;;;19.10;12.40;;;;;;;34.32;38.26;100604.05;105652;1257;59771;-64
2023/09/27 08:55:56;;;;;;;19.00;11.70;;;;;;;34.44;36.42;100601.44;105628;1253;73423;-64
2023/09/27 08:58:46;;;;;;;18.80;12.00;;;;;;;34.36;36.35;100597.52;106555;1256;68440;-63
2023/09/27 09:01:35;;;;;;;20.60;12.70;;;;;;;34.59;36.40;100595.63;105898;1254;74104;-63
2023/09/27 09:04:24;;;;;;;20.20;11.80;;;;;;;34.95;35.81;100597.98;106003;1251;59657;-65
2023/09/27 09:07:12;;;;;;;20.10;11.10;;;;;;;35.50;35.22;100601.09;106270;1252;59863;-62
2023/09/27 09:10:00;;;;;;;22.60;11.90;;;;;;;35.73;33.81;100600.73;105835;1251;73409;-64
2023/09/27 09:12:49;;;;;;;18.30;12.10;;;;;;;35.26;34.15;100598.07;105748;1257;68370;-65
2023/09/27 09:15:44;;;;;;;19.30;13.00;;;;;;;35.06;34.69;100598.15;105791;1257;71743;-65
2023/09/27 09:18:36;;;;;;;16.30;10.40;;;;;;;35.15;34.96;100595.54;105813;1251;59512;-64
2023/09/27 09:21:25;;;;;;;18.50;11.70;;;;;;;35.34;34.70;100588.19;105792;1256;60784;-61
2023/09/27 09:24:22;;;;;;;18.30;10.70;;;;;;;35.71;34.09;100587.89;105794;1254;73496;-62
2023/09/27 09:27:14;;;;;;;20.90;12.50;;;;;;;35.86;33.68;100588.09;105503;1257;68141;-65
2023/09/27 09:30:11;;;;;;;19.40;11.20;;;;;;;36.08;33.27;100581.23;105609;1251;72142;-64
2023/09/27 09:32:59;;;;;;;16.80;9.90;;;;;;;36.51;32.84;100580.80;105803;1257;59739;-62
2023/09/27 09:35:52;;;;;;;17.70;11.00;;;;;;;36.86;32.15;100582.66;105779;1257;59749;-62
2023/09/27 09:38:40;;;;;;;19.70;11.20;;;;;;;37.02;31.85;100580.81;105719;1254;73583;-62
2023/09/27 09:41:52;;;;;;;17.50;9.90;;;;;;;37.03;31.52;100582.87;105856;1256;67163;-62
2023/09/27 09:44:40;;;;;;;18.90;10.00;;;;;;;36.65;31.87;100576.84;105797;1257;73187;-62
2023/09/27 09:47:30;;;;;;;17.70;8.80;;;;;;;36.67;31.62;100575.05;105696;1265;59705;-62
2023/09/27 09:50:18;;;;;;;17.50;9.40;;;;;;;36.64;31.75;100576.05;105617;1252;61036;-66
2023/09/27 09:53:09;;;;;;;15.20;9.00;;;;;;;36.89;32.01;100584.58;106026;1251;73767;-61
2023/09/27 09:56:03;;;;;;;14.10;8.30;;;;;;;37.14;31.41;100582.76;105747;1257;68431;-61
2023/09/27 09:59:03;;;;;;;16.70;9.30;;;;;;;37.65;31.15;100585.42;106196;1252;73198;-63
2023/09/27 10:01:54;;;;;;;13.30;8.10;;;;;;;37.97;30.28;100576.48;105853;1251;59706;-64
2023/09/27 10:04:46;;;;;;;15.50;8.30;;;;;;;37.91;29.80;100574.19;105644;1253;60916;-65
2023/09/27 10:07:34;;;;;;;14.90;7.70;;;;;;;38.12;30.04;100567.56;105842;1255;72838;-62
2023/09/27 10:10:22;;;;;;;15.40;8.20;;;;;;;38.21;29.64;100568.81;105678;1251;68371;-62
2023/09/27 10:13:13;;;;;;;17.20;8.70;;;;;;;38.02;29.64;100566.98;105849;1254;74289;-63
2023/09/27 10:16:03;;;;;;;17.80;7.70;;;;;;;37.79;30.11;100561.13;105662;1257;60286;-65
2023/09/27 10:18:54;;;;;;;14.10;8.00;;;;;;;37.93;29.96;100562.23;105590;1257;59751;-64
2023/09/27 10:22:04;;;;;;;15.10;7.30;;;;;;;38.26;29.72;100553.70;105735;1257;73575;-64
2023/09/27 10:24:53;;;;;;;12.80;6.50;;;;;;;38.55;29.07;100547.52;105694;1254;68584;-64
2023/09/27 10:27:59;;;;;;;13.00;7.10;;;;;;;38.38;28.61;100541.83;105902;1254;73988;-69
2023/09/27 10:30:50;;;;;;;13.20;6.50;;;;;;;38.21;28.54;100539.71;105917;1256;59660;-66
2023/09/27 10:33:39;;;;;;;15.20;6.40;;;;;;;37.99;28.73;100534.91;105940;1254;61297;-72
2023/09/27 10:36:30;;;;;;;11.00;6.20;;;;;;;37.88;28.89;100525.79;105920;1255;72209;-68
2023/09/27 10:39:19;;;;;;;12.90;6.50;;;;;;;37.99;28.85;100528.80;105940;1257;68652;-64
2023/09/27 10:42:07;;;;;;;12.80;6.10;;;;;;;37.93;28.55;100530.24;105812;1254;73270;-64
2023/09/27 10:44:57;;;;;;;12.90;6.20;;;;;;;37.78;29.13;100530.09;105728;1257;59637;-63
2023/09/27 10:47:49;;;;;;;13.90;6.30;;;;;;;37.61;28.89;100529.65;105902;1255;60876;-63
2023/09/27 10:50:38;;;;;;;12.90;6.30;;;;;;;37.01;29.38;100530.63;105847;1253;74005;-65
2023/09/27 10:53:27;;;;;;;12.00;5.90;;;;;;;36.92;29.82;100528.12;105763;1255;67252;-62
2023/09/27 10:56:16;;;;;;;12.30;5.60;;;;;;;36.90;29.98;100525.92;105828;1257;73030;-63
2023/09/27 10:59:04;;;;;;;12.30;5.60;;;;;;;36.99;29.87;100519.94;105806;1256;59605;-64
2023/09/27 11:01:56;;;;;;;12.10;5.50;;;;;;;36.66;30.19;100518.62;106028;1257;60686;-65
2023/09/27 11:04:55;;;;;;;13.20;5.70;;;;;;;36.27;29.83;100517.12;105874;1254;73699;-63
2023/09/27 11:07:48;;;;;;;12.80;5.70;;;;;;;36.00;30.85;100519.96;106009;1257;67348;-64
2023/09/27 11:10:36;;;;;;;13.30;6.00;;;;;;;35.44;31.11;100519.73;105783;1257;73326;-66
2023/09/27 11:13:25;;;;;;;12.80;5.00;;;;;;;35.51;31.91;100510.99;105749;1253;59625;-64
2023/09/27 11:16:15;;;;;;;11.70;5.20;;;;;;;35.51;31.51;100514.27;105725;1256;61092;-66
2023/09/27 11:19:04;;;;;;;11.70;5.60;;;;;;;34.74;31.65;100517.39;105766;1254;74495;-65
2023/09/27 11:21:52;;;;;;;12.60;5.70;;;;;;;33.93;33.10;100513.90;105701;1254;69204;-65
2023/09/27 11:24:41;;;;;;;10.70;5.40;;;;;;;33.28;34.26;100511.59;105630;1256;74272;-65
2023/09/27 11:27:29;;;;;;;13.00;6.50;;;;;;;32.95;34.86;100512.70;106437;1254;59656;-64
2023/09/27 11:30:30;;;;;;;11.30;5.90;;;;;;;32.81;35.45;100514.47;105514;1257;62224;-63
2023/09/27 11:33:19;;;;;;;11.70;5.90;;;;;;;32.82;35.76;100505.77;105742;1253;72272;-63
2023/09/27 11:36:08;;;;;;;11.40;5.80;;;;;;;32.77;35.70;100505.11;105712;1253;69454;-64
2023/09/27 11:38:56;;;;;;;10.00;6.00;;;;;;;32.59;35.93;100500.46;105732;1259;73004;-63
2023/09/27 11:41:45;;;;;;;10.50;6.00;;;;;;;32.55;36.27;100497.53;105622;1253;59708;-64
2023/09/27 11:44:33;;;;;;;12.70;5.70;;;;;;;32.53;36.24;100495.24;105754;1257;62015;-63
2023/09/27 11:47:21;;;;;;;14.40;6.40;;;;;;;32.30;36.52;100501.38;106040;1253;74602;-64
2023/09/27 11:50:09;;;;;;;13.40;6.30;;;;;;;32.05;37.19;100494.05;105823;1253;67262;-61
2023/09/27 11:52:58;;;;;;;14.40;6.00;;;;;;;31.72;37.33;100496.48;105483;1254;72291;-63
2023/09/27 11:55:46;;;;;;;12.30;5.90;;;;;;;31.30;38.27;100489.52;105749;1256;59653;-63
2023/09/27 11:58:34;;;;;;;13.70;6.40;;;;;;;31.33;38.80;100489.09;105975;1257;59789;-66
2023/09/27 12:01:23;;;;;;;13.20;6.70;;;;;;;31.11;39.20;100482.13;105577;1254;72120;-64
2023/09/27 12:04:12;;;;;;;14.30;6.20;;;;;;;30.90;39.35;100479.62;105732;1252;67585;-61
2023/09/27 12:07:00;;;;;;;14.10;6.80;;;;;;;30.47;39.82;100480.44;105948;1253;71817;-62
2023/09/27 12:09:49;;;;;;;13.10;6.70;;;;;;;30.24;40.57;100473.66;105669;1254;59939;-65
2023/09/27 12:12:37;;;;;;;12.60;5.90;;;;;;;29.92;40.98;100474.02;105653;1254;60971;-65
2023/09/27 12:15:25;;;;;;;13.10;6.40;;;;;;;29.58;41.90;100467.12;105765;1253;73581;-64
2023/09/27 12:18:13;;;;;;;13.80;6.50;;;;;;;29.21;43.12;100459.80;105778;1256;68388;-63
2023/09/27 12:21:01;;;;;;;10.20;6.20;;;;;;;28.86;43.91;100461.04;105908;1256;73402;-65
2023/09/27 12:23:50;;;;;;;14.20;6.80;;;;;;;28.50;45.08;100459.95;105932;1252;59654;-65
2023/09/27 12:26:39;;;;;;;14.60;7.30;;;;;;;28.10;46.04;100460.92;105906;1254;61797;-63
2023/09/27 12:29:27;;;;;;;12.40;5.90;;;;;;;27.77;46.54;100465.70;105706;1256;73614;-63
2023/09/27 12:32:17;;;;;;;13.90;7.10;;;;;;;27.49;47.96;100463.19;105862;1254;69142;-64
2023/09/27 12:35:06;;;;;;;13.60;8.00;;;;;;;27.29;48.42;100465.66;105766;1254;71862;-61
2023/09/27 12:37:54;;;;;;;13.90;7.50;;;;;;;27.02;49.68;100466.83;105742;1256;59622;-64
2023/09/27 12:40:42;;;;;;;14.60;7.90;;;;;;;26.74;50.43;100463.16;105687;1253;61215;-63